createdAt,value
2023-04-26T00:00:19.295Z,65
2023-04-26T00:01:26.240Z,65
2023-04-26T00:02:33.174Z,64
2023-04-26T00:03:40.271Z,65
2023-04-26T00:04:49.119Z,64
2023-04-26T00:05:58.837Z,64
2023-04-26T00:07:05.682Z,64
2023-04-26T00:08:12.550Z,65
2023-04-26T00:09:20.012Z,64
2023-04-26T00:10:27.932Z,64
2023-04-26T00:11:35.791Z,64
2023-04-26T00:12:42.574Z,64
2023-04-26T00:13:49.401Z,64
2023-04-26T00:14:56.264Z,64
2023-04-26T00:16:03.335Z,63
2023-04-26T00:17:11.907Z,63
2023-04-26T00:18:18.895Z,63
2023-04-26T00:19:28.816Z,63
2023-04-26T00:20:35.589Z,63
2023-04-26T00:21:44.234Z,63
2023-04-26T00:22:51.003Z,63
2023-04-26T00:23:57.912Z,63
2023-04-26T00:25:04.802Z,62
2023-04-26T00:26:12.214Z,63
2023-04-26T00:27:19.071Z,62
2023-04-26T00:28:28.568Z,63
2023-04-26T00:29:35.372Z,63
2023-04-26T00:30:42.143Z,63
2023-04-26T00:31:49.149Z,63
2023-04-26T00:32:56.106Z,63
2023-04-26T00:34:02.932Z,63
2023-04-26T00:35:09.808Z,63
2023-04-26T00:36:16.616Z,63
2023-04-26T00:37:23.479Z,63
2023-04-26T00:38:31.293Z,63
2023-04-26T00:39:38.101Z,63
2023-04-26T00:40:44.916Z,63
2023-04-26T00:41:51.745Z,63
2023-04-26T00:42:58.625Z,64
2023-04-26T00:44:06.406Z,63
2023-04-26T00:45:14.148Z,63
2023-04-26T00:46:21.050Z,64
2023-04-26T00:47:27.897Z,64
2023-04-26T00:48:34.728Z,64
2023-04-26T00:49:41.610Z,64
2023-04-26T00:50:48.489Z,64
2023-04-26T00:51:55.378Z,65
2023-04-26T00:53:02.220Z,65
2023-04-26T00:54:09.017Z,65
2023-04-26T00:55:15.844Z,66
2023-04-26T00:56:22.857Z,66
2023-04-26T00:57:29.894Z,66
2023-04-26T00:58:36.833Z,66
2023-04-26T00:59:43.688Z,67
2023-04-26T01:00:51.308Z,67
2023-04-26T01:01:58.427Z,67
2023-04-26T01:03:08.128Z,66
2023-04-26T01:04:15.039Z,67
2023-04-26T01:05:21.731Z,67
2023-04-26T01:06:28.669Z,67
2023-04-26T01:07:38.345Z,67
2023-04-26T01:08:46.360Z,67
2023-04-26T01:09:53.195Z,67
2023-04-26T01:11:00.095Z,67
2023-04-26T01:12:06.905Z,67
2023-04-26T01:13:13.693Z,68
2023-04-26T01:14:20.536Z,68
2023-04-26T01:15:27.365Z,69
2023-04-26T01:16:34.231Z,68
2023-04-26T01:17:41.276Z,68
2023-04-26T01:18:48.107Z,69
2023-04-26T01:19:54.956Z,68
2023-04-26T01:21:03.427Z,69
2023-04-26T01:22:08.584Z,68
2023-04-26T01:23:15.423Z,68
2023-04-26T01:24:23.163Z,69
2023-04-26T01:25:30.029Z,69
2023-04-26T01:26:36.875Z,70
2023-04-26T01:27:43.744Z,69
2023-04-26T01:28:50.950Z,69
2023-04-26T01:29:59.558Z,69
2023-04-26T01:31:07.336Z,69
2023-04-26T01:32:14.176Z,70
2023-04-26T01:33:21.621Z,70
2023-04-26T01:34:29.561Z,70
2023-04-26T01:35:36.401Z,70
2023-04-26T01:36:43.187Z,70
2023-04-26T01:37:51.906Z,70
2023-04-26T01:38:58.612Z,69
2023-04-26T01:40:05.391Z,69
2023-04-26T01:41:12.508Z,69
2023-04-26T01:42:19.332Z,69
2023-04-26T01:43:26.216Z,69
2023-04-26T01:44:33.030Z,69
2023-04-26T01:45:39.780Z,69
2023-04-26T01:46:46.667Z,69
2023-04-26T01:47:53.514Z,70
2023-04-26T01:49:00.418Z,70
2023-04-26T01:50:09.965Z,70
2023-04-26T01:51:16.906Z,70
2023-04-26T01:52:23.752Z,70
2023-04-26T01:53:30.571Z,70
2023-04-26T01:54:37.380Z,70
2023-04-26T01:55:44.269Z,70
2023-04-26T01:56:51.031Z,70
2023-04-26T01:57:57.825Z,70
2023-04-26T01:59:05.677Z,71
2023-04-26T02:00:12.532Z,71
2023-04-26T02:01:19.434Z,71
2023-04-26T02:02:26.396Z,71
2023-04-26T02:03:35.962Z,71
2023-04-26T02:04:42.746Z,71
2023-04-26T02:05:49.527Z,72
2023-04-26T02:06:56.414Z,72
2023-04-26T02:08:03.239Z,71
2023-04-26T02:09:10.979Z,71
2023-04-26T02:10:17.856Z,72
2023-04-26T02:11:24.788Z,72
2023-04-26T02:12:31.569Z,72
2023-04-26T02:13:38.412Z,72
2023-04-26T02:14:46.066Z,71
2023-04-26T02:15:54.739Z,71
2023-04-26T02:17:01.492Z,72
2023-04-26T02:18:08.315Z,72
2023-04-26T02:19:15.137Z,72
2023-04-26T02:20:23.641Z,71
2023-04-26T02:21:30.444Z,71
2023-04-26T02:22:37.408Z,71
2023-04-26T02:23:44.166Z,71
2023-04-26T02:24:51.014Z,71
2023-04-26T02:25:58.877Z,71
2023-04-26T02:27:05.672Z,71
2023-04-26T02:28:12.562Z,71
2023-04-26T02:29:24.578Z,71
2023-04-26T02:30:26.488Z,71
2023-04-26T02:31:33.348Z,71
2023-04-26T02:32:41.214Z,72
2023-04-26T02:33:47.969Z,72
2023-04-26T02:34:56.553Z,71
2023-04-26T02:36:03.427Z,71
2023-04-26T02:37:11.428Z,71
2023-04-26T02:38:18.305Z,71
2023-04-26T02:39:25.117Z,71
2023-04-26T02:40:31.930Z,71
2023-04-26T02:41:40.667Z,71
2023-04-26T02:42:47.836Z,71
2023-04-26T02:43:54.671Z,71
2023-04-26T02:45:01.533Z,71
2023-04-26T02:46:09.487Z,71
2023-04-26T02:47:16.280Z,71
2023-04-26T02:48:23.086Z,71
2023-04-26T02:49:30.023Z,71
2023-04-26T02:50:40.255Z,71
2023-04-26T02:51:47.254Z,72
2023-04-26T02:52:54.939Z,71
2023-04-26T02:54:01.802Z,72
2023-04-26T02:55:08.671Z,71
2023-04-26T02:56:15.560Z,71
2023-04-26T02:57:22.630Z,71
2023-04-26T02:58:29.549Z,71
2023-04-26T02:59:36.460Z,71
2023-04-26T03:00:43.412Z,71
2023-04-26T03:01:51.144Z,71
2023-04-26T03:02:58.044Z,71
2023-04-26T03:04:05.264Z,71
2023-04-26T03:05:11.921Z,71
2023-04-26T03:06:18.763Z,71
2023-04-26T03:07:26.448Z,71
2023-04-26T03:08:34.088Z,71
2023-04-26T03:09:40.989Z,71
2023-04-26T03:10:48.686Z,71
2023-04-26T03:11:55.721Z,71
2023-04-26T03:13:02.587Z,71
2023-04-26T03:14:09.440Z,71
2023-04-26T03:15:16.267Z,71
2023-04-26T03:16:23.506Z,71
2023-04-26T03:17:30.283Z,71
2023-04-26T03:18:37.112Z,71
2023-04-26T03:19:47.060Z,71
2023-04-26T03:20:53.932Z,71
2023-04-26T03:22:00.776Z,71
2023-04-26T03:23:07.574Z,71
2023-04-26T03:24:14.645Z,71
2023-04-26T03:25:22.545Z,70
2023-04-26T03:26:29.394Z,70
2023-04-26T03:27:36.189Z,70
2023-04-26T03:28:43.005Z,70
2023-04-26T03:29:50.041Z,70
2023-04-26T03:30:56.891Z,71
2023-04-26T03:32:08.598Z,70
2023-04-26T03:33:15.642Z,70
2023-04-26T03:34:24.491Z,70
2023-04-26T03:35:31.330Z,70
2023-04-26T03:36:38.213Z,70
2023-04-26T03:37:45.035Z,70
2023-04-26T03:38:52.152Z,70
2023-04-26T03:39:58.932Z,70
2023-04-26T03:41:05.771Z,70
2023-04-26T03:42:12.684Z,70
2023-04-26T03:43:19.482Z,70
2023-04-26T03:44:26.305Z,70
2023-04-26T03:45:33.291Z,70
2023-04-26T03:46:40.009Z,70
2023-04-26T03:47:46.866Z,70
2023-04-26T03:48:53.886Z,70
2023-04-26T03:50:00.636Z,70
2023-04-26T03:51:07.523Z,70
2023-04-26T03:52:15.952Z,70
2023-04-26T03:53:22.819Z,70
2023-04-26T03:54:29.687Z,70
2023-04-26T03:55:36.577Z,70
2023-04-26T03:56:44.369Z,69
2023-04-26T03:57:51.306Z,70
2023-04-26T03:58:58.173Z,70
2023-04-26T04:00:06.747Z,71
2023-04-26T04:01:16.321Z,70
2023-04-26T04:02:23.203Z,70
2023-04-26T04:03:33.010Z,70
2023-04-26T04:04:39.927Z,70
2023-04-26T04:05:46.807Z,70
2023-04-26T04:06:53.661Z,70
2023-04-26T04:08:00.539Z,70
2023-04-26T04:09:07.381Z,70
2023-04-26T04:10:15.970Z,70
2023-04-26T04:11:22.774Z,70
2023-04-26T04:12:29.651Z,70
2023-04-26T04:13:37.372Z,70
2023-04-26T04:14:44.211Z,70
2023-04-26T04:15:51.117Z,70
2023-04-26T04:16:57.904Z,70
2023-04-26T04:18:07.112Z,70
2023-04-26T04:19:13.918Z,70
2023-04-26T04:20:20.812Z,70
2023-04-26T04:21:27.733Z,70
2023-04-26T04:22:34.551Z,70
2023-04-26T04:23:41.353Z,70
2023-04-26T04:24:48.195Z,70
2023-04-26T04:25:55.206Z,70
2023-04-26T04:27:02.084Z,70
2023-04-26T04:28:08.949Z,70
2023-04-26T04:29:15.845Z,70
2023-04-26T04:30:22.656Z,70
2023-04-26T04:31:29.608Z,70
2023-04-26T04:32:39.167Z,70
2023-04-26T04:33:51.068Z,70
2023-04-26T04:34:59.148Z,70
2023-04-26T04:36:06.224Z,70
2023-04-26T04:37:13.028Z,70
2023-04-26T04:38:19.801Z,70
2023-04-26T04:39:27.104Z,70
2023-04-26T04:40:33.914Z,70
2023-04-26T04:41:41.715Z,70
2023-04-26T04:42:48.575Z,70
2023-04-26T04:43:55.550Z,70
2023-04-26T04:45:03.296Z,70
2023-04-26T04:46:12.911Z,70
2023-04-26T04:47:18.844Z,70
2023-04-26T04:48:25.731Z,70
2023-04-26T04:49:32.705Z,69
2023-04-26T04:50:39.553Z,70
2023-04-26T04:51:46.391Z,70
2023-04-26T04:52:53.236Z,69
2023-04-26T04:54:00.148Z,69
2023-04-26T04:55:13.601Z,70
2023-04-26T04:56:20.919Z,69
2023-04-26T04:57:29.403Z,69
2023-04-26T04:58:36.323Z,70
2023-04-26T04:59:43.173Z,69
2023-04-26T05:00:49.974Z,69
2023-04-26T05:01:58.066Z,69
2023-04-26T05:03:05.157Z,69
2023-04-26T05:04:11.873Z,68
2023-04-26T05:05:18.579Z,68
2023-04-26T05:06:25.373Z,68
2023-04-26T05:07:32.241Z,67
2023-04-26T05:08:39.028Z,68
2023-04-26T05:09:48.773Z,67
2023-04-26T05:10:55.649Z,67
2023-04-26T05:12:02.642Z,67
2023-04-26T05:13:09.517Z,66
2023-04-26T05:14:16.372Z,67
2023-04-26T05:15:23.201Z,67
2023-04-26T05:16:30.056Z,67
2023-04-26T05:17:37.101Z,66
2023-04-26T05:18:44.977Z,66
2023-04-26T05:19:51.787Z,66
2023-04-26T05:20:58.590Z,67
2023-04-26T05:22:05.409Z,67
2023-04-26T05:23:13.988Z,67
2023-04-26T05:24:21.140Z,67
2023-04-26T05:25:28.111Z,67
2023-04-26T05:26:34.879Z,67
2023-04-26T05:27:41.720Z,67
2023-04-26T05:28:48.566Z,67
2023-04-26T05:29:55.388Z,67
2023-04-26T05:31:02.356Z,67
2023-04-26T05:32:09.270Z,67
2023-04-26T05:33:16.076Z,67
2023-04-26T05:34:22.898Z,67
2023-04-26T05:35:31.652Z,67
2023-04-26T05:36:38.562Z,66
2023-04-26T05:37:45.527Z,66
2023-04-26T05:38:52.375Z,66
2023-04-26T05:39:59.197Z,67
2023-04-26T05:41:06.090Z,67
2023-04-26T05:42:17.056Z,67
2023-04-26T05:43:21.856Z,67
2023-04-26T05:44:28.723Z,66
2023-04-26T05:45:35.567Z,66
2023-04-26T05:46:42.431Z,66
2023-04-26T05:47:50.156Z,66
2023-04-26T05:48:56.944Z,66
2023-04-26T05:50:04.664Z,66
2023-04-26T05:51:13.036Z,66
2023-04-26T05:52:19.905Z,65
2023-04-26T05:53:29.470Z,65
2023-04-26T05:54:36.330Z,65
2023-04-26T05:55:43.389Z,65
2023-04-26T05:56:50.380Z,65
2023-04-26T05:57:57.226Z,65
2023-04-26T05:59:04.209Z,65
2023-04-26T06:00:11.059Z,65
2023-04-26T06:01:18.236Z,64
2023-04-26T06:02:28.982Z,64
2023-04-26T06:03:35.831Z,64
2023-04-26T06:04:42.601Z,64
2023-04-26T06:05:50.535Z,63
2023-04-26T06:06:57.362Z,63
2023-04-26T06:08:04.181Z,63
2023-04-26T06:09:13.279Z,63
2023-04-26T06:10:20.242Z,64
2023-04-26T06:11:27.099Z,64
2023-04-26T06:12:33.964Z,64
2023-04-26T06:13:41.869Z,63
2023-04-26T06:14:48.701Z,63
2023-04-26T06:15:58.769Z,64
2023-04-26T06:17:05.725Z,63
2023-04-26T06:18:12.660Z,63
2023-04-26T06:19:19.352Z,64
2023-04-26T06:20:27.189Z,63
2023-04-26T06:21:34.193Z,63
2023-04-26T06:22:41.043Z,63
2023-04-26T06:23:51.592Z,63
2023-04-26T06:24:58.227Z,62
2023-04-26T06:26:05.044Z,63
2023-04-26T06:27:11.910Z,62
2023-04-26T06:28:20.370Z,62
2023-04-26T06:29:27.257Z,62
2023-04-26T06:30:34.979Z,61
2023-04-26T06:31:41.869Z,61
2023-04-26T06:32:48.877Z,61
2023-04-26T06:33:55.692Z,61
2023-04-26T06:35:03.159Z,60
2023-04-26T06:36:10.236Z,60
2023-04-26T06:37:17.036Z,61
2023-04-26T06:38:23.795Z,61
2023-04-26T06:39:30.561Z,61
2023-04-26T06:40:37.436Z,61
2023-04-26T06:41:44.246Z,60
2023-04-26T06:42:51.093Z,61
2023-04-26T06:43:57.869Z,60
2023-04-26T06:45:04.625Z,60
2023-04-26T06:46:12.016Z,60
2023-04-26T06:47:18.814Z,61
2023-04-26T06:48:25.565Z,61
2023-04-26T06:49:32.424Z,61
2023-04-26T06:50:39.159Z,62
2023-04-26T06:51:45.964Z,62
2023-04-26T06:52:53.005Z,62
2023-04-26T06:53:59.822Z,62
2023-04-26T06:55:06.663Z,61
2023-04-26T06:56:13.489Z,61
2023-04-26T06:57:20.354Z,62
2023-04-26T06:58:34.144Z,61
2023-04-26T06:59:41.212Z,61
2023-04-26T07:00:48.053Z,61
2023-04-26T07:01:55.007Z,61
2023-04-26T07:03:01.901Z,61
2023-04-26T07:04:09.574Z,61
2023-04-26T07:05:17.321Z,61
2023-04-26T07:06:24.051Z,61
2023-04-26T07:07:31.912Z,61
2023-04-26T07:08:39.014Z,61
2023-04-26T07:09:45.950Z,61
2023-04-26T07:10:52.805Z,62
2023-04-26T07:11:59.623Z,61
2023-04-26T07:13:08.878Z,62
2023-04-26T07:14:14.151Z,62
2023-04-26T07:15:21.000Z,62
2023-04-26T07:16:27.833Z,63
2023-04-26T07:17:34.693Z,62
2023-04-26T07:18:41.406Z,63
2023-04-26T07:19:48.191Z,63
2023-04-26T07:20:56.163Z,63
2023-04-26T07:22:03.074Z,62
2023-04-26T07:23:09.749Z,62
2023-04-26T07:24:16.634Z,62
2023-04-26T07:25:23.458Z,61
2023-04-26T07:26:32.792Z,61
2023-04-26T07:27:39.788Z,61
2023-04-26T07:28:46.556Z,60
2023-04-26T07:29:56.628Z,61
2023-04-26T07:31:03.437Z,60
2023-04-26T07:32:10.370Z,60
2023-04-26T07:33:17.179Z,59
2023-04-26T07:34:24.027Z,60
2023-04-26T07:35:30.843Z,59
2023-04-26T07:36:37.673Z,59
2023-04-26T07:37:44.407Z,59
2023-04-26T07:38:51.219Z,59
2023-04-26T07:39:58.000Z,59
2023-04-26T07:41:06.136Z,59
2023-04-26T07:42:13.905Z,60
2023-04-26T07:43:20.660Z,60
2023-04-26T07:44:27.395Z,60
2023-04-26T07:45:34.206Z,60
2023-04-26T07:46:41.061Z,60
2023-04-26T07:47:48.038Z,59
2023-04-26T07:48:54.733Z,59
2023-04-26T07:50:01.601Z,59
2023-04-26T07:51:08.663Z,60
2023-04-26T07:52:15.707Z,60
2023-04-26T07:53:22.572Z,59
2023-04-26T07:54:29.379Z,59
2023-04-26T07:55:36.208Z,59
2023-04-26T07:56:43.914Z,59
2023-04-26T07:57:51.017Z,59
2023-04-26T07:58:57.954Z,59
2023-04-26T08:00:07.680Z,60
2023-04-26T08:01:17.093Z,60
2023-04-26T08:02:37.137Z,60
2023-04-26T08:03:32.831Z,60
2023-04-26T08:04:39.504Z,59
2023-04-26T08:05:46.571Z,59
2023-04-26T08:06:53.883Z,59
2023-04-26T08:08:00.952Z,57
2023-04-26T08:09:07.790Z,56
2023-04-26T08:10:14.630Z,56
2023-04-26T08:11:21.614Z,54
2023-04-26T08:12:28.429Z,54
2023-04-26T08:13:35.278Z,54
2023-04-26T08:14:42.198Z,54
2023-04-26T08:15:49.068Z,55
2023-04-26T08:16:55.932Z,55
2023-04-26T08:18:02.872Z,55
2023-04-26T08:19:09.755Z,54
2023-04-26T08:20:17.546Z,54
2023-04-26T08:21:24.412Z,53
2023-04-26T08:22:31.164Z,53
2023-04-26T08:23:38.108Z,53
2023-04-26T08:24:45.013Z,51
2023-04-26T08:25:51.986Z,51
2023-04-26T08:26:58.835Z,52
2023-04-26T08:28:05.647Z,52
2023-04-26T08:29:12.458Z,52
2023-04-26T08:30:19.243Z,52
2023-04-26T08:31:26.058Z,52
2023-04-26T08:32:33.146Z,52
2023-04-26T08:33:39.895Z,53
2023-04-26T08:34:46.688Z,53
2023-04-26T08:35:53.524Z,52
2023-04-26T08:37:00.355Z,52
2023-04-26T08:38:07.360Z,52
2023-04-26T08:39:14.355Z,52
2023-04-26T08:40:21.136Z,51
2023-04-26T08:41:27.997Z,50
2023-04-26T08:42:35.825Z,48
2023-04-26T08:43:41.702Z,49
2023-04-26T08:44:48.611Z,49
2023-04-26T08:45:55.462Z,49
2023-04-26T08:47:02.222Z,49
2023-04-26T08:48:17.105Z,50
2023-04-26T08:49:23.876Z,50
2023-04-26T08:50:33.478Z,50
2023-04-26T08:51:40.310Z,48
2023-04-26T08:52:47.115Z,48
2023-04-26T08:53:54.276Z,47
2023-04-26T08:55:01.208Z,48
2023-04-26T08:56:08.186Z,48
2023-04-26T08:57:14.948Z,49
2023-04-26T08:58:21.798Z,48
2023-04-26T08:59:28.580Z,48
2023-04-26T09:00:35.497Z,50
2023-04-26T09:01:42.353Z,50
2023-04-26T09:02:49.273Z,52
2023-04-26T09:03:56.280Z,53
2023-04-26T09:05:03.009Z,54
2023-04-26T09:06:09.914Z,53
2023-04-26T09:07:16.706Z,53
2023-04-26T09:08:31.495Z,53
2023-04-26T09:09:38.359Z,53
2023-04-26T09:10:45.241Z,52
2023-04-26T09:11:51.946Z,52
2023-04-26T09:13:01.737Z,52
2023-04-26T09:14:08.459Z,52
2023-04-26T09:15:15.242Z,52
2023-04-26T09:16:22.251Z,52
2023-04-26T09:17:39.384Z,52
2023-04-26T09:18:46.076Z,52
2023-04-26T09:19:52.865Z,51
2023-04-26T09:20:59.798Z,51
2023-04-26T09:22:06.603Z,49
2023-04-26T09:23:13.489Z,49
2023-04-26T09:24:20.272Z,49
2023-04-26T09:25:27.011Z,49
2023-04-26T09:26:33.900Z,50
2023-04-26T09:27:40.839Z,49
2023-04-26T09:28:47.714Z,49
2023-04-26T09:29:54.525Z,48
2023-04-26T09:31:06.457Z,48
2023-04-26T09:32:13.212Z,48
2023-04-26T09:33:20.082Z,49
2023-04-26T09:34:26.834Z,49
2023-04-26T09:35:33.796Z,49
2023-04-26T09:36:40.524Z,49
2023-04-26T09:37:58.652Z,49
2023-04-26T09:39:06.220Z,48
2023-04-26T09:40:13.077Z,47
2023-04-26T09:41:22.746Z,48
2023-04-26T09:42:29.606Z,47
2023-04-26T09:43:36.358Z,47
2023-04-26T09:44:43.159Z,47
2023-04-26T09:45:50.134Z,47
2023-04-26T09:46:59.503Z,47
2023-04-26T09:48:09.280Z,47
2023-04-26T09:49:22.135Z,47
2023-04-26T09:50:29.028Z,46
2023-04-26T09:51:35.906Z,46
2023-04-26T09:52:42.807Z,45
2023-04-26T09:53:49.722Z,43
2023-04-26T09:54:56.618Z,43
2023-04-26T09:56:03.484Z,43
2023-04-26T09:57:15.824Z,43
2023-04-26T09:58:22.773Z,43
2023-04-26T09:59:29.453Z,43
2023-04-26T10:00:44.352Z,42
2023-04-26T10:01:51.207Z,43
2023-04-26T10:02:58.218Z,43
2023-04-26T10:04:05.025Z,42
2023-04-26T10:05:11.662Z,42
2023-04-26T10:06:18.500Z,42
2023-04-26T10:07:25.293Z,42
2023-04-26T10:08:32.070Z,43
2023-04-26T10:09:38.939Z,43
2023-04-26T10:10:45.777Z,43
2023-04-26T10:11:52.590Z,44
2023-04-26T10:12:59.365Z,44
2023-04-26T10:14:06.224Z,44
2023-04-26T10:15:13.166Z,45
2023-04-26T10:16:20.077Z,45
2023-04-26T10:17:26.879Z,46
2023-04-26T10:18:33.703Z,47
2023-04-26T10:19:40.509Z,46
2023-04-26T10:20:47.279Z,44
2023-04-26T10:21:54.054Z,43
2023-04-26T10:23:00.891Z,43
2023-04-26T10:24:07.629Z,44
2023-04-26T10:25:14.381Z,44
2023-04-26T10:26:22.245Z,44
2023-04-26T10:27:39.536Z,44
2023-04-26T10:28:46.409Z,45
2023-04-26T10:29:53.196Z,45
2023-04-26T10:31:00.053Z,44
2023-04-26T10:32:07.084Z,44
2023-04-26T10:33:13.955Z,44
2023-04-26T10:34:20.729Z,44
2023-04-26T10:35:27.555Z,44
2023-04-26T10:36:34.373Z,45
2023-04-26T10:37:42.116Z,46
2023-04-26T10:38:59.276Z,45
2023-04-26T10:40:17.317Z,42
2023-04-26T10:41:34.554Z,43
2023-04-26T10:42:42.134Z,43
2023-04-26T10:43:48.902Z,43
2023-04-26T10:44:55.730Z,43
2023-04-26T10:46:02.889Z,43
2023-04-26T10:47:19.973Z,43
2023-04-26T10:48:29.719Z,45
2023-04-26T10:49:36.488Z,44
2023-04-26T10:50:46.197Z,44
2023-04-26T10:52:03.429Z,44
2023-04-26T10:53:15.482Z,44
2023-04-26T10:54:22.573Z,45
2023-04-26T10:55:29.388Z,45
2023-04-26T10:56:41.976Z,45
2023-04-26T10:57:51.578Z,45
2023-04-26T10:58:58.410Z,46
2023-04-26T11:00:10.658Z,45
2023-04-26T11:01:20.464Z,45
2023-04-26T11:02:28.072Z,44
2023-04-26T11:03:45.359Z,44
2023-04-26T11:05:00.932Z,43
2023-04-26T11:06:07.807Z,42
2023-04-26T11:07:17.309Z,42
2023-04-26T11:08:34.654Z,41
2023-04-26T11:09:43.506Z,42
2023-04-26T11:10:53.210Z,42
2023-04-26T11:12:05.185Z,42
2023-04-26T11:13:14.685Z,42
2023-04-26T11:14:21.660Z,42
2023-04-26T11:15:28.606Z,42
2023-04-26T11:16:35.608Z,42
2023-04-26T11:17:42.445Z,43
2023-04-26T11:18:49.199Z,41
2023-04-26T11:19:56.123Z,40
2023-04-26T11:21:03.746Z,39
2023-04-26T11:22:10.523Z,39
2023-04-26T11:23:17.323Z,39
2023-04-26T11:24:24.134Z,39
2023-04-26T11:25:30.989Z,38
2023-04-26T11:26:38.042Z,38
2023-04-26T11:27:44.911Z,38
2023-04-26T11:28:51.918Z,38
2023-04-26T11:29:58.711Z,39
2023-04-26T11:31:06.444Z,39
2023-04-26T11:32:13.220Z,38
2023-04-26T11:33:20.113Z,38
2023-04-26T11:34:26.886Z,38
2023-04-26T11:35:39.730Z,39
2023-04-26T11:36:46.560Z,39
2023-04-26T11:37:54.250Z,41
2023-04-26T11:39:01.213Z,41
2023-04-26T11:40:08.037Z,42
2023-04-26T11:41:15.130Z,42
2023-04-26T11:42:22.272Z,43
2023-04-26T11:43:29.050Z,42
2023-04-26T11:44:35.856Z,42
2023-04-26T11:45:42.611Z,42
2023-04-26T11:46:49.512Z,42
2023-04-26T11:47:56.364Z,41
2023-04-26T11:49:03.125Z,41
2023-04-26T11:50:09.950Z,41
2023-04-26T11:51:16.788Z,41
2023-04-26T11:52:23.620Z,41
2023-04-26T11:53:30.512Z,41
2023-04-26T11:54:43.139Z,41
2023-04-26T11:55:50.106Z,41
2023-04-26T11:56:56.917Z,41
2023-04-26T11:58:03.778Z,42
2023-04-26T11:59:13.318Z,42
2023-04-26T12:00:20.111Z,43
2023-04-26T12:01:27.254Z,43
2023-04-26T12:02:34.157Z,43
2023-04-26T12:03:41.354Z,43
2023-04-26T12:04:48.286Z,43
2023-04-26T12:05:54.728Z,43
2023-04-26T12:07:01.565Z,43
2023-04-26T12:08:08.384Z,42
2023-04-26T12:09:15.240Z,42
2023-04-26T12:10:22.014Z,42
2023-04-26T12:11:28.895Z,42
2023-04-26T12:12:35.797Z,41
2023-04-26T12:13:42.633Z,42
2023-04-26T12:14:49.500Z,42
2023-04-26T12:15:56.474Z,42
2023-04-26T12:17:03.535Z,42
2023-04-26T12:18:10.605Z,42
2023-04-26T12:19:16.837Z,41
2023-04-26T12:20:23.775Z,41
2023-04-26T12:21:35.809Z,41
2023-04-26T12:22:45.270Z,41
2023-04-26T12:24:00.288Z,42
2023-04-26T12:25:07.259Z,42
2023-04-26T12:26:14.190Z,43
2023-04-26T12:27:21.123Z,41
2023-04-26T12:28:28.018Z,41
2023-04-26T12:29:34.821Z,41
2023-04-26T12:30:41.665Z,41
2023-04-26T12:31:48.558Z,41
2023-04-26T12:32:57.745Z,42
2023-04-26T12:34:03.242Z,42
2023-04-26T12:35:10.040Z,41
2023-04-26T12:36:16.852Z,41
2023-04-26T12:37:23.711Z,42
2023-04-26T12:38:30.497Z,41
2023-04-26T12:39:37.427Z,41
2023-04-26T12:40:47.119Z,39
2023-04-26T12:41:53.901Z,39
2023-04-26T12:43:00.813Z,40
2023-04-26T12:44:07.649Z,39
2023-04-26T12:45:14.426Z,38
2023-04-26T12:46:21.322Z,39
2023-04-26T12:47:28.181Z,39
2023-04-26T12:48:35.003Z,38
2023-04-26T12:49:41.793Z,39
2023-04-26T12:50:50.063Z,39
2023-04-26T12:51:55.500Z,38
2023-04-26T12:53:02.774Z,37
2023-04-26T12:54:09.585Z,38
2023-04-26T12:55:16.511Z,39
2023-04-26T12:56:23.261Z,38
2023-04-26T12:57:30.325Z,38
2023-04-26T12:58:37.218Z,38
2023-04-26T12:59:43.996Z,38
2023-04-26T13:00:50.796Z,39
2023-04-26T13:01:57.655Z,38
2023-04-26T13:03:04.626Z,39
2023-04-26T13:04:11.468Z,39
2023-04-26T13:05:18.071Z,39
2023-04-26T13:06:24.885Z,40
2023-04-26T13:07:31.713Z,40
2023-04-26T13:08:38.573Z,40
2023-04-26T13:09:45.368Z,41
2023-04-26T13:10:52.232Z,41
2023-04-26T13:11:58.989Z,41
2023-04-26T13:13:05.836Z,41
2023-04-26T13:14:13.490Z,41
2023-04-26T13:15:20.443Z,41
2023-04-26T13:16:27.277Z,41
2023-04-26T13:17:34.082Z,41
2023-04-26T13:18:40.907Z,41
2023-04-26T13:19:47.715Z,41
2023-04-26T13:20:54.664Z,41
2023-04-26T13:22:01.623Z,41
2023-04-26T13:23:08.329Z,40
2023-04-26T13:24:15.153Z,40
2023-04-26T13:25:21.954Z,40
2023-04-26T13:26:28.943Z,40
2023-04-26T13:27:35.811Z,39
2023-04-26T13:28:42.598Z,39
2023-04-26T13:29:49.462Z,39
2023-04-26T13:30:56.262Z,40
2023-04-26T13:32:03.284Z,40
2023-04-26T13:33:10.292Z,39
2023-04-26T13:34:17.058Z,39
2023-04-26T13:35:23.917Z,39
2023-04-26T13:36:30.662Z,39
2023-04-26T13:37:37.723Z,39
2023-04-26T13:38:44.470Z,38
2023-04-26T13:39:51.253Z,39
2023-04-26T13:40:58.095Z,38
2023-04-26T13:42:05.008Z,38
2023-04-26T13:43:11.855Z,38
2023-04-26T13:44:18.894Z,38
2023-04-26T13:45:25.726Z,38
2023-04-26T13:46:32.621Z,38
2023-04-26T13:47:39.486Z,38
2023-04-26T13:48:46.204Z,39
2023-04-26T13:49:53.094Z,40
2023-04-26T13:50:59.986Z,40
2023-04-26T13:52:06.954Z,40
2023-04-26T13:53:13.812Z,41
2023-04-26T13:54:20.616Z,40
2023-04-26T13:55:28.468Z,39
2023-04-26T13:56:35.316Z,38
2023-04-26T13:57:42.129Z,38
2023-04-26T13:58:48.964Z,37
2023-04-26T13:59:55.752Z,37
2023-04-26T14:01:02.794Z,36
2023-04-26T14:02:09.686Z,36
2023-04-26T14:03:16.528Z,37
2023-04-26T14:04:23.388Z,37
2023-04-26T14:05:30.117Z,38
2023-04-26T14:06:37.060Z,39
2023-04-26T14:07:43.980Z,40
2023-04-26T14:08:50.783Z,40
2023-04-26T14:09:57.512Z,40
2023-04-26T14:11:04.357Z,39
2023-04-26T14:12:11.176Z,39
2023-04-26T14:13:17.971Z,39
2023-04-26T14:14:33.017Z,39
2023-04-26T14:15:43.876Z,38
2023-04-26T14:16:50.740Z,37
2023-04-26T14:17:57.680Z,37
2023-04-26T14:19:04.508Z,37
2023-04-26T14:20:11.385Z,37
2023-04-26T14:21:18.184Z,37
2023-04-26T14:22:24.973Z,37
2023-04-26T14:23:31.894Z,37
2023-04-26T14:24:38.749Z,37
2023-04-26T14:25:45.469Z,38
2023-04-26T14:26:54.955Z,38
2023-04-26T14:28:01.809Z,38
2023-04-26T14:29:08.632Z,38
2023-04-26T14:30:15.548Z,39
2023-04-26T14:31:22.454Z,38
2023-04-26T14:32:29.261Z,39
2023-04-26T14:33:35.971Z,39
2023-04-26T14:34:42.824Z,39
2023-04-26T14:35:49.652Z,39
2023-04-26T14:36:56.505Z,39
2023-04-26T14:38:03.414Z,39
2023-04-26T14:39:10.290Z,40
2023-04-26T14:40:17.096Z,40
2023-04-26T14:41:24.019Z,40
2023-04-26T14:42:31.025Z,40
2023-04-26T14:43:37.794Z,40
2023-04-26T14:44:44.653Z,40
2023-04-26T14:45:51.396Z,40
2023-04-26T14:46:58.166Z,40
2023-04-26T14:48:05.006Z,40
2023-04-26T14:49:11.798Z,40
2023-04-26T14:50:18.626Z,40
2023-04-26T14:51:25.392Z,39
2023-04-26T14:52:32.228Z,40
2023-04-26T14:53:39.229Z,40
2023-04-26T14:54:45.993Z,41
2023-04-26T14:55:52.872Z,41
2023-04-26T14:57:02.490Z,40
2023-04-26T14:58:09.245Z,39
2023-04-26T14:59:16.075Z,38
2023-04-26T15:00:22.952Z,38
2023-04-26T15:01:29.842Z,38
2023-04-26T15:02:36.678Z,38
2023-04-26T15:03:43.532Z,38
2023-04-26T15:04:50.563Z,39
2023-04-26T15:05:56.970Z,39
2023-04-26T15:07:03.959Z,39
2023-04-26T15:08:10.754Z,39
2023-04-26T15:09:17.705Z,39
2023-04-26T15:10:24.492Z,40
2023-04-26T15:11:32.318Z,39
2023-04-26T15:12:39.124Z,40
2023-04-26T15:13:45.951Z,39
2023-04-26T15:14:52.736Z,39
2023-04-26T15:15:59.536Z,40
2023-04-26T15:17:06.344Z,40
2023-04-26T15:18:13.277Z,39
2023-04-26T15:19:19.978Z,39
2023-04-26T15:20:26.716Z,40
2023-04-26T15:21:33.536Z,39
2023-04-26T15:22:40.361Z,39
2023-04-26T15:23:47.235Z,39
2023-04-26T15:24:53.996Z,40
2023-04-26T15:26:00.772Z,39
2023-04-26T15:27:07.620Z,39
2023-04-26T15:28:15.942Z,39
2023-04-26T15:29:21.402Z,39
2023-04-26T15:30:28.282Z,39
2023-04-26T15:31:35.118Z,39
2023-04-26T15:32:41.947Z,39
2023-04-26T15:33:51.757Z,39
2023-04-26T15:34:58.647Z,40
2023-04-26T15:36:05.600Z,40
2023-04-26T15:37:12.626Z,40
2023-04-26T15:38:19.445Z,40
2023-04-26T15:39:26.275Z,40
2023-04-26T15:40:33.140Z,40
2023-04-26T15:41:40.082Z,40
2023-04-26T15:42:46.968Z,39
2023-04-26T15:43:53.815Z,40
2023-04-26T15:45:00.664Z,40
2023-04-26T15:46:07.736Z,39
2023-04-26T15:47:17.330Z,40
2023-04-26T15:48:24.093Z,40
2023-04-26T15:49:31.030Z,40
2023-04-26T15:50:39.029Z,40
2023-04-26T15:51:45.820Z,40
2023-04-26T15:52:52.673Z,40
2023-04-26T15:54:12.612Z,40
2023-04-26T15:55:19.959Z,41
2023-04-26T15:56:26.826Z,40
2023-04-26T15:57:33.641Z,41
2023-04-26T15:58:42.194Z,41
2023-04-26T15:59:47.231Z,41
2023-04-26T16:00:54.297Z,41